createdAt,value
2018-06-02T00:00:44.877Z,101077
2018-06-02T00:03:12.969Z,101087
2018-06-02T00:05:41.120Z,101075
2018-06-02T00:08:09.304Z,101072
2018-06-02T00:10:37.624Z,101072
2018-06-02T00:13:06.002Z,101074
2018-06-02T00:15:35.653Z,101089
2018-06-02T00:18:05.357Z,101091
2018-06-02T00:20:33.793Z,101083
2018-06-02T00:23:02.133Z,101077
2018-06-02T00:25:30.239Z,101064
2018-06-02T00:27:58.648Z,101077
2018-06-02T00:30:26.756Z,101078
2018-06-02T00:32:55.079Z,101072
2018-06-02T00:35:23.954Z,101075
2018-06-02T00:37:52.869Z,101068
2018-06-02T00:40:22.076Z,101074
2018-06-02T00:42:50.580Z,101080
2018-06-02T00:45:18.736Z,101070
2018-06-02T00:47:46.836Z,101073
2018-06-02T00:50:16.844Z,101075
2018-06-02T00:52:45.038Z,101076
2018-06-02T00:55:13.139Z,101077
2018-06-02T00:57:41.244Z,101073
2018-06-02T01:00:09.356Z,101074
2018-06-02T01:02:37.656Z,101070
2018-06-02T01:05:06.235Z,101078
2018-06-02T01:07:34.991Z,101072
2018-06-02T01:10:04.820Z,101079
2018-06-02T01:12:33.369Z,101073
2018-06-02T01:15:02.227Z,101065
2018-06-02T01:17:30.542Z,101062
2018-06-02T01:19:58.637Z,101061
2018-06-02T01:22:26.949Z,101064
2018-06-02T01:24:56.053Z,101063
2018-06-02T01:27:24.445Z,101063
2018-06-02T01:29:53.556Z,101059
2018-06-02T01:32:21.943Z,101068
2018-06-02T01:34:51.121Z,101060
2018-06-02T01:37:19.992Z,101064
2018-06-02T01:39:48.236Z,101063
2018-06-02T01:42:16.527Z,101054
2018-06-02T01:44:44.621Z,101051
2018-06-02T01:47:12.791Z,101046
2018-06-02T01:49:41.670Z,101055
2018-06-02T01:52:10.045Z,101050
2018-06-02T01:54:38.686Z,101053
2018-06-02T01:57:06.768Z,101047
2018-06-02T01:59:34.935Z,101052
2018-06-02T02:02:03.032Z,101055
2018-06-02T02:04:32.236Z,101047
2018-06-02T02:07:00.430Z,101045
2018-06-02T02:09:28.660Z,101040
2018-06-02T02:11:56.947Z,101051
2018-06-02T02:14:25.059Z,101050
2018-06-02T02:16:53.231Z,101049
2018-06-02T02:19:21.322Z,101046
2018-06-02T02:21:51.002Z,101050
2018-06-02T02:24:19.089Z,101040
2018-06-02T02:26:47.225Z,101042
2018-06-02T02:29:15.311Z,101043
2018-06-02T02:31:43.464Z,101045
2018-06-02T02:34:11.844Z,101055
2018-06-02T02:36:40.007Z,101047
2018-06-02T02:39:08.098Z,101055
2018-06-02T02:41:36.871Z,101057
2018-06-02T02:44:05.196Z,101051
2018-06-02T02:46:33.292Z,101051
2018-06-02T02:49:01.398Z,101063
2018-06-02T02:51:29.575Z,101060
2018-06-02T02:53:57.792Z,101056
2018-06-02T02:56:25.887Z,101058
2018-06-02T02:58:53.998Z,101065
2018-06-02T03:01:22.114Z,101064
2018-06-02T03:03:50.449Z,101061
2018-06-02T03:06:18.564Z,101072
2018-06-02T03:08:46.684Z,101063
2018-06-02T03:11:14.795Z,101062
2018-06-02T03:13:42.943Z,101063
2018-06-02T03:16:11.008Z,101064
2018-06-02T03:18:39.937Z,101060
2018-06-02T03:21:08.191Z,101059
2018-06-02T03:23:36.279Z,101060
2018-06-02T03:26:04.393Z,101063
2018-06-02T03:28:32.496Z,101062
2018-06-02T03:31:00.624Z,101056
2018-06-02T03:33:30.346Z,101056
2018-06-02T03:35:59.112Z,101058
2018-06-02T03:38:27.310Z,101052
2018-06-02T03:40:55.591Z,101053
2018-06-02T03:43:23.691Z,101061
2018-06-02T03:45:53.113Z,101053
2018-06-02T03:48:21.221Z,101055
2018-06-02T03:50:50.982Z,101061
2018-06-02T03:53:19.086Z,101059
2018-06-02T03:55:47.173Z,101069
2018-06-02T03:58:15.271Z,101060
2018-06-02T04:00:44.176Z,101076
2018-06-02T04:03:12.605Z,101075
2018-06-02T04:05:40.820Z,101080
2018-06-02T04:08:08.989Z,101076
2018-06-02T04:10:37.273Z,101069
2018-06-02T04:13:06.113Z,101073
2018-06-02T04:15:34.231Z,101073
2018-06-02T04:18:08.320Z,101073
2018-06-02T04:20:37.540Z,101081
2018-06-02T04:23:05.648Z,101077
2018-06-02T04:25:34.993Z,101072
2018-06-02T04:28:03.928Z,101083
2018-06-02T04:30:32.047Z,101078
2018-06-02T04:33:00.293Z,101076
2018-06-02T04:35:28.409Z,101082
2018-06-02T04:37:56.522Z,101072
2018-06-02T04:40:24.628Z,101087
2018-06-02T04:42:52.729Z,101084
2018-06-02T04:45:20.935Z,101078
2018-06-02T04:47:49.080Z,101076
2018-06-02T04:50:18.075Z,101086
2018-06-02T04:52:47.148Z,101082
2018-06-02T04:55:15.295Z,101086
2018-06-02T04:57:44.376Z,101082
2018-06-02T05:00:12.509Z,101089
2018-06-02T05:02:40.591Z,101086
2018-06-02T05:05:08.687Z,101102
2018-06-02T05:07:36.815Z,101089
2018-06-02T05:10:04.915Z,101103
2018-06-02T05:12:33.012Z,101099
2018-06-02T05:15:01.303Z,101092
2018-06-02T05:17:29.457Z,101104
2018-06-02T05:19:57.591Z,101112
2018-06-02T05:22:25.683Z,101104
2018-06-02T05:24:53.787Z,101107
2018-06-02T05:27:21.860Z,101117
2018-06-02T05:29:50.639Z,101115
2018-06-02T05:32:18.739Z,101113
2018-06-02T05:34:47.055Z,101108
2018-06-02T05:37:19.497Z,101113
2018-06-02T05:39:47.956Z,101119
2018-06-02T05:42:16.057Z,101112
2018-06-02T05:44:44.276Z,101113
2018-06-02T05:47:12.381Z,101119
2018-06-02T05:49:40.593Z,101119
2018-06-02T05:52:08.884Z,101109
2018-06-02T05:54:38.663Z,101114
2018-06-02T05:57:07.204Z,101123
2018-06-02T05:59:35.676Z,101123
2018-06-02T06:02:04.334Z,101127
2018-06-02T06:04:33.244Z,101133
2018-06-02T06:07:01.361Z,101121
2018-06-02T06:09:29.559Z,101121
2018-06-02T06:11:57.923Z,101121
2018-06-02T06:14:26.025Z,101118
2018-06-02T06:16:55.168Z,101121
2018-06-02T06:19:23.252Z,101123
2018-06-02T06:21:52.078Z,101126
2018-06-02T06:24:20.218Z,101127
2018-06-02T06:26:54.562Z,101123
2018-06-02T06:29:22.621Z,101121
2018-06-02T06:31:50.745Z,101116
2018-06-02T06:34:18.891Z,101121
2018-06-02T06:36:48.012Z,101119
2018-06-02T06:39:16.335Z,101125
2018-06-02T06:41:44.466Z,101132
2018-06-02T06:44:12.932Z,101118
2018-06-02T06:46:42.159Z,101122
2018-06-02T06:49:10.463Z,101133
2018-06-02T06:51:38.660Z,101125
2018-06-02T06:54:06.959Z,101131
2018-06-02T06:56:35.891Z,101129
2018-06-02T06:59:04.716Z,101124
2018-06-02T07:01:34.730Z,101132
2018-06-02T07:04:02.870Z,101120
2018-06-02T07:06:30.988Z,101118
2018-06-02T07:09:00.758Z,101126
2018-06-02T07:11:29.777Z,101125
2018-06-02T07:13:57.880Z,101123
2018-06-02T07:16:26.339Z,101126
2018-06-02T07:18:54.447Z,101125
2018-06-02T07:21:22.644Z,101133
2018-06-02T07:23:50.731Z,101133
2018-06-02T07:26:18.895Z,101144
2018-06-02T07:28:47.016Z,101141
2018-06-02T07:31:15.299Z,101139
2018-06-02T07:33:44.147Z,101138
2018-06-02T07:36:14.276Z,101146
2018-06-02T07:38:42.364Z,101134
2018-06-02T07:41:11.240Z,101143
2018-06-02T07:43:39.425Z,101151
2018-06-02T07:46:07.721Z,101141
2018-06-02T07:48:36.584Z,101142
2018-06-02T07:51:04.676Z,101146
2018-06-02T07:53:32.799Z,101137
2018-06-02T07:56:01.648Z,101131
2018-06-02T07:58:29.786Z,101142
2018-06-02T08:00:57.913Z,101149
2018-06-02T08:03:26.026Z,101151
2018-06-02T08:05:54.102Z,101141
2018-06-02T08:08:22.850Z,101141
2018-06-02T08:10:50.925Z,101144
2018-06-02T08:13:19.064Z,101141
2018-06-02T08:15:48.410Z,101142
2018-06-02T08:18:16.955Z,101146
2018-06-02T08:20:46.473Z,101141
2018-06-02T08:23:14.599Z,101145
2018-06-02T08:25:42.859Z,101160
2018-06-02T08:28:14.440Z,101151
2018-06-02T08:30:43.027Z,101143
2018-06-02T08:33:11.232Z,101139
2018-06-02T08:35:40.112Z,101153
2018-06-02T08:38:08.263Z,101155
2018-06-02T08:40:36.365Z,101148
2018-06-02T08:43:05.229Z,101156
2018-06-02T08:45:33.566Z,101148
2018-06-02T08:48:02.457Z,101153
2018-06-02T08:50:30.559Z,101142
2018-06-02T08:52:58.969Z,101156
2018-06-02T08:55:27.553Z,101158
2018-06-02T08:57:56.510Z,101150
2018-06-02T09:00:24.645Z,101150
2018-06-02T09:02:52.788Z,101159
2018-06-02T09:05:20.938Z,101164
2018-06-02T09:07:49.042Z,101164
2018-06-02T09:10:17.152Z,101156
2018-06-02T09:12:45.644Z,101155
2018-06-02T09:15:13.728Z,101161
2018-06-02T09:17:42.359Z,101162
2018-06-02T09:20:11.201Z,101165
2018-06-02T09:22:39.294Z,101166
2018-06-02T09:25:07.433Z,101171
2018-06-02T09:27:35.509Z,101173
2018-06-02T09:30:04.922Z,101175
2018-06-02T09:32:33.108Z,101169
2018-06-02T09:35:05.213Z,101174
2018-06-02T09:37:33.313Z,101174
2018-06-02T09:40:01.444Z,101175
2018-06-02T09:42:30.308Z,101177
2018-06-02T09:44:59.323Z,101174
2018-06-02T09:47:28.792Z,101168
2018-06-02T09:49:57.577Z,101170
2018-06-02T09:52:25.757Z,101180
2018-06-02T09:54:53.844Z,101180
2018-06-02T09:57:21.937Z,101177
2018-06-02T09:59:50.856Z,101173
2018-06-02T10:02:19.069Z,101173
2018-06-02T10:04:47.183Z,101175
2018-06-02T10:07:16.056Z,101177
2018-06-02T10:09:44.148Z,101173
2018-06-02T10:12:13.103Z,101172
2018-06-02T10:14:41.182Z,101177
2018-06-02T10:17:09.398Z,101174
2018-06-02T10:19:37.488Z,101178
2018-06-02T10:22:05.611Z,101177
2018-06-02T10:24:33.703Z,101172
2018-06-02T10:27:04.764Z,101175
2018-06-02T10:29:33.110Z,101168
2018-06-02T10:32:01.236Z,101168
2018-06-02T10:34:29.349Z,101166
2018-06-02T10:36:57.436Z,101170
2018-06-02T10:39:25.579Z,101171
2018-06-02T10:41:53.684Z,101172
2018-06-02T10:44:22.767Z,101164
2018-06-02T10:46:50.908Z,101167
2018-06-02T10:49:21.425Z,101157
2018-06-02T10:51:49.582Z,101162
2018-06-02T10:54:17.669Z,101168
2018-06-02T10:56:45.800Z,101168
2018-06-02T10:59:14.681Z,101166
2018-06-02T11:01:42.809Z,101169
2018-06-02T11:04:11.645Z,101178
2018-06-02T11:06:39.720Z,101181
2018-06-02T11:09:07.874Z,101170
2018-06-02T11:11:36.304Z,101169
2018-06-02T11:14:05.168Z,101165
2018-06-02T11:16:34.032Z,101164
2018-06-02T11:19:02.160Z,101167
2018-06-02T11:21:33.095Z,101170
2018-06-02T11:24:02.140Z,101164
2018-06-02T11:26:30.262Z,101174
2018-06-02T11:28:59.575Z,101165
2018-06-02T11:31:27.681Z,101169
2018-06-02T11:33:55.776Z,101173
2018-06-02T11:36:24.048Z,101172
2018-06-02T11:38:52.182Z,101176
2018-06-02T11:41:20.260Z,101172
2018-06-02T11:43:48.453Z,101176
2018-06-02T11:46:16.956Z,101171
2018-06-02T11:48:45.229Z,101179
2018-06-02T11:51:13.363Z,101165
2018-06-02T11:53:44.760Z,101170
2018-06-02T11:56:12.895Z,101166
2018-06-02T11:58:40.990Z,101169
2018-06-02T12:01:09.461Z,101161
2018-06-02T12:03:37.539Z,101156
2018-06-02T12:06:06.611Z,101152
2018-06-02T12:08:34.680Z,101149
2018-06-02T12:11:02.985Z,101158
2018-06-02T12:13:31.936Z,101146
2018-06-02T12:16:00.048Z,101148
2018-06-02T12:18:28.143Z,101149
2018-06-02T12:20:57.025Z,101146
2018-06-02T12:23:25.100Z,101144
2018-06-02T12:25:53.219Z,101143
2018-06-02T12:28:21.470Z,101141
2018-06-02T12:30:49.523Z,101144
2018-06-02T12:33:18.926Z,101142
2018-06-02T12:35:47.036Z,101143
2018-06-02T12:38:15.184Z,101143
2018-06-02T12:40:43.591Z,101134
2018-06-02T12:43:11.716Z,101143
2018-06-02T12:45:40.462Z,101128
2018-06-02T12:48:08.544Z,101136
2018-06-02T12:50:36.863Z,101133
2018-06-02T12:53:05.748Z,101135
2018-06-02T12:55:33.876Z,101139
2018-06-02T12:58:01.962Z,101135
2018-06-02T13:00:33.132Z,101139
2018-06-02T13:03:01.316Z,101142
2018-06-02T13:05:29.393Z,101152
2018-06-02T13:07:57.521Z,101152
2018-06-02T13:10:25.794Z,101156
2018-06-02T13:12:53.921Z,101153
2018-06-02T13:15:22.122Z,101152
2018-06-02T13:17:50.223Z,101151
2018-06-02T13:20:19.026Z,101152
2018-06-02T13:22:47.167Z,101147
2018-06-02T13:25:15.268Z,101146
2018-06-02T13:27:43.392Z,101151
2018-06-02T13:30:11.715Z,101145
2018-06-02T13:32:40.142Z,101147
2018-06-02T13:35:15.360Z,101144
2018-06-02T13:37:43.644Z,101143
2018-06-02T13:40:13.299Z,101135
2018-06-02T13:42:41.470Z,101132
2018-06-02T13:45:10.260Z,101136
2018-06-02T13:47:38.557Z,101135
2018-06-02T13:50:06.725Z,101143
2018-06-02T13:52:34.909Z,101139
2018-06-02T13:55:02.996Z,101126
2018-06-02T13:57:31.323Z,101124
2018-06-02T13:59:59.448Z,101126
2018-06-02T14:02:27.621Z,101124
2018-06-02T14:04:56.153Z,101124
2018-06-02T14:07:24.419Z,101131
2018-06-02T14:09:52.512Z,101123
2018-06-02T14:12:20.584Z,101114
2018-06-02T14:14:48.694Z,101126
2018-06-02T14:17:16.808Z,101121
2018-06-02T14:19:44.963Z,101105
2018-06-02T14:22:13.929Z,101134
2018-06-02T14:24:43.750Z,101120
2018-06-02T14:27:12.021Z,101119
2018-06-02T14:29:41.276Z,101106
2018-06-02T14:32:09.592Z,101109
2018-06-02T14:34:38.445Z,101109
2018-06-02T14:37:06.813Z,101114
2018-06-02T14:39:35.728Z,101115
2018-06-02T14:42:03.835Z,101117
2018-06-02T14:44:31.960Z,101108
2018-06-02T14:47:00.058Z,101109
2018-06-02T14:49:28.471Z,101114
2018-06-02T14:51:56.772Z,101101
2018-06-02T14:54:26.680Z,101113
2018-06-02T14:56:54.805Z,101105
2018-06-02T14:59:23.683Z,101108
2018-06-02T15:01:52.984Z,101107
2018-06-02T15:04:21.088Z,101112
2018-06-02T15:06:49.352Z,101114
2018-06-02T15:09:18.312Z,101102
2018-06-02T15:11:48.139Z,101105
2018-06-02T15:14:16.216Z,101106
2018-06-02T15:16:45.452Z,101107
2018-06-02T15:19:15.078Z,101101
2018-06-02T15:21:43.965Z,101116
2018-06-02T15:24:12.916Z,101111
2018-06-02T15:26:42.800Z,101099
2018-06-02T15:29:11.622Z,101108
2018-06-02T15:31:39.779Z,101105
2018-06-02T15:34:07.923Z,101110
2018-06-02T15:36:36.244Z,101103
2018-06-02T15:39:05.385Z,101106
2018-06-02T15:41:34.741Z,101101
2018-06-02T15:44:07.216Z,101111
2018-06-02T15:46:35.492Z,101100
2018-06-02T15:49:03.597Z,101103
2018-06-02T15:51:32.734Z,101103
2018-06-02T15:54:00.960Z,101094
2018-06-02T15:56:29.177Z,101101
2018-06-02T15:58:57.545Z,101085
2018-06-02T16:01:25.881Z,101095
2018-06-02T16:03:54.000Z,101095
2018-06-02T16:06:23.935Z,101096
2018-06-02T16:08:55.479Z,101100
2018-06-02T16:11:24.360Z,101102
2018-06-02T16:13:52.473Z,101100
2018-06-02T16:16:20.569Z,101096
2018-06-02T16:18:48.754Z,101104
2018-06-02T16:21:16.983Z,101096
2018-06-02T16:23:45.079Z,101094
2018-06-02T16:26:13.494Z,101093
2018-06-02T16:28:41.604Z,101088
2018-06-02T16:31:11.404Z,101102
2018-06-02T16:33:39.652Z,101104
2018-06-02T16:36:09.464Z,101105
2018-06-02T16:38:39.149Z,101094
2018-06-02T16:41:11.930Z,101101
2018-06-02T16:43:51.859Z,101106
2018-06-02T16:46:23.561Z,101096
2018-06-02T16:48:54.213Z,101104
2018-06-02T16:51:22.478Z,101105
2018-06-02T16:53:50.763Z,101107
2018-06-02T16:56:18.871Z,101099
2018-06-02T16:58:50.536Z,101101
2018-06-02T17:01:18.623Z,101100
2018-06-02T17:03:46.954Z,101108
2018-06-02T17:06:15.088Z,101112
2018-06-02T17:13:07.967Z,101106
2018-06-02T17:15:46.744Z,101106
2018-06-02T17:18:15.084Z,101104
2018-06-02T17:20:43.283Z,101095
2018-06-02T17:23:12.092Z,101109
2018-06-02T17:25:40.329Z,101106
2018-06-02T17:28:09.258Z,101100
2018-06-02T17:30:37.515Z,101099
2018-06-02T17:33:05.596Z,101107
2018-06-02T17:35:33.865Z,101105
2018-06-02T17:38:01.976Z,101112
2018-06-02T17:40:30.613Z,101104
2018-06-02T17:42:59.444Z,101103
2018-06-02T17:45:27.781Z,101100
2018-06-02T17:47:56.688Z,101102
2018-06-02T17:50:24.928Z,101100
2018-06-02T17:52:54.484Z,101091
2018-06-02T17:55:22.825Z,101094
2018-06-02T17:57:51.640Z,101105
2018-06-02T18:00:20.653Z,101089
2018-06-02T18:02:49.095Z,101086
2018-06-02T18:05:17.271Z,101092
2018-06-02T18:07:45.780Z,101094
2018-06-02T18:10:14.587Z,101079
2018-06-02T18:12:43.596Z,101082
2018-06-02T18:15:11.911Z,101081
2018-06-02T18:17:40.973Z,101086
2018-06-02T18:20:09.212Z,101089
2018-06-02T18:22:37.384Z,101091
2018-06-02T18:25:06.518Z,101094
2018-06-02T18:27:36.173Z,101094
2018-06-02T18:30:04.500Z,101104
2018-06-02T18:32:32.631Z,101103
2018-06-02T18:37:55.201Z,101095
2018-06-02T18:40:23.372Z,101094
2018-06-02T18:42:55.128Z,101102
2018-06-02T18:45:23.752Z,101096
2018-06-02T18:47:51.876Z,101088
2018-06-02T18:50:20.711Z,101087
2018-06-02T18:52:48.824Z,101091
2018-06-02T18:55:18.145Z,101087
2018-06-02T18:57:46.552Z,101096
2018-06-02T19:00:15.411Z,101085
2018-06-02T19:02:44.758Z,101082
2018-06-02T19:05:13.080Z,101091
2018-06-02T19:07:41.221Z,101092
2018-06-02T19:10:09.616Z,101093
2018-06-02T19:12:39.791Z,101092
2018-06-02T19:15:12.253Z,101103
2018-06-02T19:17:40.518Z,101093
2018-06-02T19:20:08.626Z,101090
2018-06-02T19:22:36.908Z,101092
2018-06-02T19:25:05.685Z,101093
2018-06-02T19:27:35.692Z,101105
2018-06-02T19:30:04.047Z,101093
2018-06-02T19:32:32.171Z,101100
2018-06-02T19:35:00.347Z,101095
2018-06-02T19:37:28.825Z,101102
2018-06-02T19:39:57.957Z,101109
2018-06-02T19:42:26.378Z,101108
2018-06-02T19:44:55.373Z,101108
2018-06-02T19:47:23.608Z,101112
2018-06-02T19:49:51.708Z,101110
2018-06-02T19:52:21.474Z,101112
2018-06-02T19:54:52.307Z,101117
2018-06-02T19:57:21.422Z,101123
2018-06-02T19:59:49.812Z,101130
2018-06-02T20:02:18.612Z,101119
2018-06-02T20:04:46.743Z,101133
2018-06-02T20:07:15.625Z,101128
2018-06-02T20:09:44.132Z,101129
2018-06-02T20:12:12.471Z,101132
2018-06-02T20:14:40.560Z,101134
2018-06-02T20:17:08.732Z,101136
2018-06-02T20:19:37.625Z,101141
2018-06-02T20:22:06.270Z,101137
2018-06-02T20:24:34.501Z,101138
2018-06-02T20:27:02.749Z,101141
2018-06-02T20:29:31.000Z,101147
2018-06-02T20:31:59.085Z,101145
2018-06-02T20:34:27.430Z,101150
2018-06-02T20:36:56.528Z,101156
2018-06-02T20:39:24.911Z,101151
2018-06-02T20:41:53.905Z,101157
2018-06-02T20:44:24.497Z,101151
2018-06-02T20:46:53.597Z,101149
2018-06-02T20:49:21.696Z,101158
2018-06-02T20:51:50.591Z,101159
2018-06-02T20:54:18.813Z,101155
2018-06-02T20:56:47.127Z,101154
2018-06-02T20:59:15.514Z,101153
2018-06-02T21:01:44.091Z,101161
2018-06-02T21:04:12.540Z,101168
2018-06-02T21:06:42.272Z,101162
2018-06-02T21:09:11.356Z,101163
2018-06-02T21:11:40.141Z,101159
2018-06-02T21:14:09.056Z,101165
2018-06-02T21:16:38.011Z,101167
2018-06-02T21:19:06.114Z,101164
2018-06-02T21:21:35.000Z,101175
2018-06-02T21:24:03.873Z,101171
2018-06-02T21:26:32.286Z,101173
2018-06-02T21:29:00.644Z,101173
2018-06-02T21:31:28.752Z,101169
2018-06-02T21:33:56.996Z,101181
2018-06-02T21:36:25.836Z,101181
2018-06-02T21:38:57.394Z,101180
2018-06-02T21:41:26.460Z,101175
2018-06-02T21:43:54.593Z,101180
2018-06-02T21:46:22.901Z,101177
2018-06-02T21:48:51.209Z,101182
2018-06-02T21:51:19.449Z,101192
2018-06-02T21:53:49.138Z,101189
2018-06-02T21:56:17.476Z,101178
2018-06-02T21:58:47.264Z,101187
2018-06-02T22:01:16.064Z,101191
2018-06-02T22:03:47.629Z,101190
2018-06-02T22:06:16.510Z,101185
2018-06-02T22:08:44.768Z,101200
2018-06-02T22:11:13.115Z,101198
2018-06-02T22:13:42.620Z,101196
2018-06-02T22:16:10.711Z,101203
2018-06-02T22:18:38.828Z,101192
2018-06-02T22:21:06.980Z,101200
2018-06-02T22:23:35.821Z,101200
2018-06-02T22:26:03.972Z,101196
2018-06-02T22:28:32.151Z,101197
2018-06-02T22:31:00.468Z,101194
2018-06-02T22:33:29.495Z,101189
2018-06-02T22:35:57.680Z,101200
2018-06-02T22:38:29.751Z,101197
2018-06-02T22:40:57.859Z,101201
2018-06-02T22:43:26.668Z,101194
2018-06-02T22:45:54.945Z,101190
2018-06-02T22:48:23.068Z,101200
2018-06-02T22:50:51.360Z,101195
2018-06-02T22:53:21.146Z,101201
2018-06-02T22:55:49.979Z,101199
2018-06-02T22:58:19.088Z,101199
2018-06-02T23:00:49.963Z,101211
2018-06-02T23:03:18.116Z,101207
2018-06-02T23:05:47.187Z,101215
2018-06-02T23:08:15.972Z,101214
2018-06-02T23:10:48.039Z,101215
2018-06-02T23:13:16.188Z,101214
2018-06-02T23:15:44.551Z,101207
2018-06-02T23:18:12.871Z,101208
2018-06-02T23:20:42.657Z,101207
2018-06-02T23:23:10.796Z,101212
2018-06-02T23:25:39.781Z,101206
2018-06-02T23:28:08.584Z,101207
2018-06-02T23:30:36.773Z,101208
2018-06-02T23:33:04.874Z,101205
2018-06-02T23:35:33.073Z,101219
2018-06-02T23:38:01.878Z,101211
2018-06-02T23:40:29.968Z,101219
2018-06-02T23:42:58.110Z,101209
2018-06-02T23:45:26.272Z,101208
2018-06-02T23:47:55.200Z,101214
2018-06-02T23:50:23.384Z,101215
2018-06-02T23:52:51.748Z,101213
2018-06-02T23:55:19.859Z,101211
2018-06-02T23:57:48.013Z,101215
